X-preSS Montecervino — 9HA3980 — position and weather

sailwx.info

Track history (hours):
 
Tides and Currents Weather Stations Pressure Air Temp Water Temp Dewpoint Dewpoint Depression Visibility Wind Speed Wind Dir Waves Ship Positions

X-preSS Montecervino

Last reported at 2017-Nov-18 02:30 UTC. Time now 2017-Nov-18 02:41 UTC.
Position N 41°11' W 008°42'.

Length 134 m; draft 7.8 m.

Type: Ship. MMSI: 256677000.

Date/timePositionNaut miles runAvg speedWind from/ knotsBaromVisibWave heightAir tempDewpointWater temp
2017-Nov-18 02:30N 41°11' W 008°42'0 0.0
2017-Nov-18 02:00N 41°11' W 008°42'0 0.0
2017-Nov-18 01:30N 41°11' W 008°42'0 0.0
2017-Nov-18 01:01N 41°11' W 008°42'0 0.0
2017-Nov-18 00:31N 41°11' W 008°42'0 0.0
2017-Nov-18 00:01N 41°11' W 008°42'0 0.0
2017-Nov-17 23:31N 41°11' W 008°42'0 0.0
2017-Nov-17 23:01N 41°11' W 008°42'1 1.2
2017-Nov-17 22:30N 41°10' W 008°42'3 5.7
2017-Nov-17 22:00N 41°11' W 008°46'43 1.7
2017-Nov-16 20:24N 40°40' W 009°25'7511.7
2017-Nov-16 14:01N 39°27' W 009°47'013.4
2017-Nov-16 14:00N 39°27' W 009°47'612.4
2017-Nov-16 13:30N 39°20' W 009°47'612.5
2017-Nov-16 13:01N 39°14' W 009°48'612.4
2017-Nov-16 12:31N 39°08' W 009°49'612.2
2017-Nov-16 12:01N 39°02' W 009°50'612.0
2017-Nov-16 11:30N 38°56' W 009°51'612.3
2017-Nov-16 11:00N 38°50' W 009°52'612.6
2017-Nov-16 10:31N 38°44' W 009°52'612.2
2017-Nov-16 10:01N 38°38' W 009°50'611.6
2017-Nov-16 09:30N 38°32' W 009°49'611.3
2017-Nov-16 09:00N 38°27' W 009°46'611.1
2017-Nov-16 08:30N 38°21' W 009°45'611.3
2017-Nov-16 07:59N 38°15' W 009°44'511.2
2017-Nov-16 07:30N 38°10' W 009°42'511.0
2017-Nov-16 07:00N 38°05' W 009°40'611.6
2017-Nov-16 06:30N 37°59' W 009°38'611.7
2017-Nov-16 06:01N 37°54' W 009°37'611.7
2017-Nov-16 05:30N 37°48' W 009°35'611.7
2017-Nov-16 05:00N 37°42' W 009°34'611.6
2017-Nov-16 04:31N 37°36' W 009°32'611.9
2017-Nov-16 04:01N 37°31' W 009°30'611.9
2017-Nov-16 03:31N 37°25' W 009°29'611.8
2017-Nov-16 03:00N 37°19' W 009°27'611.9
2017-Nov-16 02:31N 37°13' W 009°25'611.6
2017-Nov-16 02:01N 37°08' W 009°24'611.3
2017-Nov-16 01:30N 37°02' W 009°22'611.4
2017-Nov-16 00:58N 36°56' W 009°21'4311.2
2017-Nov-15 21:10N 36°36' W 008°34'  
2017-Nov-10 01:15N 36°08' W 005°25'0 0.0
2017-Nov-10 00:38N 36°08' W 005°25'0 0.0
2017-Nov-10 00:20N 36°08' W 005°25'0 0.0
2017-Nov-09 23:56N 36°08' W 005°25'0 0.0
2017-Nov-09 23:30N 36°08' W 005°25'  
Track history (hours):
 
Tides and Currents Weather Stations Pressure Air Temp Water Temp Dewpoint Dewpoint Depression Visibility Wind Speed Wind Dir Waves Ship Positions

X-preSS Montecervino

Last reported at 2017-Nov-18 02:30 UTC. Time now 2017-Nov-18 02:41 UTC.
Position N 41°11' W 008°42'.

Length 134 m; draft 7.8 m.

Type: Ship. MMSI: 256677000.

Date/timePositionNaut miles runAvg speedWind from/ knotsBaromVisibWave heightAir tempDewpointWater temp
2017-Nov-18 02:30N 41°11' W 008°42'0 0.0
2017-Nov-18 02:00N 41°11' W 008°42'0 0.0
2017-Nov-18 01:30N 41°11' W 008°42'0 0.0
2017-Nov-18 01:01N 41°11' W 008°42'0 0.0
2017-Nov-18 00:31N 41°11' W 008°42'0 0.0
2017-Nov-18 00:01N 41°11' W 008°42'0 0.0
2017-Nov-17 23:31N 41°11' W 008°42'0 0.0
2017-Nov-17 23:01N 41°11' W 008°42'1 1.2
2017-Nov-17 22:30N 41°10' W 008°42'3 5.7
2017-Nov-17 22:00N 41°11' W 008°46'43 1.7
2017-Nov-16 20:24N 40°40' W 009°25'7511.7
2017-Nov-16 14:01N 39°27' W 009°47'013.4
2017-Nov-16 14:00N 39°27' W 009°47'612.4
2017-Nov-16 13:30N 39°20' W 009°47'612.5
2017-Nov-16 13:01N 39°14' W 009°48'612.4
2017-Nov-16 12:31N 39°08' W 009°49'612.2
2017-Nov-16 12:01N 39°02' W 009°50'612.0
2017-Nov-16 11:30N 38°56' W 009°51'612.3
2017-Nov-16 11:00N 38°50' W 009°52'612.6
2017-Nov-16 10:31N 38°44' W 009°52'612.2
2017-Nov-16 10:01N 38°38' W 009°50'611.6
2017-Nov-16 09:30N 38°32' W 009°49'611.3
2017-Nov-16 09:00N 38°27' W 009°46'611.1
2017-Nov-16 08:30N 38°21' W 009°45'611.3
2017-Nov-16 07:59N 38°15' W 009°44'511.2
2017-Nov-16 07:30N 38°10' W 009°42'511.0
2017-Nov-16 07:00N 38°05' W 009°40'611.6
2017-Nov-16 06:30N 37°59' W 009°38'611.7
2017-Nov-16 06:01N 37°54' W 009°37'611.7
2017-Nov-16 05:30N 37°48' W 009°35'611.7
2017-Nov-16 05:00N 37°42' W 009°34'611.6
2017-Nov-16 04:31N 37°36' W 009°32'611.9
2017-Nov-16 04:01N 37°31' W 009°30'611.9
2017-Nov-16 03:31N 37°25' W 009°29'611.8
2017-Nov-16 03:00N 37°19' W 009°27'611.9
2017-Nov-16 02:31N 37°13' W 009°25'611.6
2017-Nov-16 02:01N 37°08' W 009°24'611.3
2017-Nov-16 01:30N 37°02' W 009°22'611.4
2017-Nov-16 00:58N 36°56' W 009°21'4311.2
2017-Nov-15 21:10N 36°36' W 008°34'  
2017-Nov-10 01:15N 36°08' W 005°25'0 0.0
2017-Nov-10 00:38N 36°08' W 005°25'0 0.0
2017-Nov-10 00:20N 36°08' W 005°25'0 0.0
2017-Nov-09 23:56N 36°08' W 005°25'0 0.0
2017-Nov-09 23:30N 36°08' W 005°25'  

Dump ship's entire track history